Time;durP1;ratioP1;P1;durP2;ratioP2;P2;SDS_P1;SDS_P2;PMS_P1;PMS_P2;Temp;Humidity;BMP_temperature;BMP_pressure;BME280_temperature;BME280_humidity;BME280_pressure;Samples;Min_cycle;Max_cycle;Signal;HPM_P1;HPM_P2
2023/09/04 00:00:41;;;;;;;13.60;4.80;;;;;;;12.53;100.00;101432.52;105846;1253;71552;-51
2023/09/04 00:03:10;;;;;;;5.40;4.90;;;;;;;12.53;100.00;101435.80;105833;1254;60409;-51
2023/09/04 00:05:37;;;;;;;8.00;4.60;;;;;;;12.52;100.00;101434.95;105901;1257;60357;-51
2023/09/04 00:08:05;;;;;;;6.40;4.80;;;;;;;12.53;100.00;101437.18;105858;1256;72603;-52
2023/09/04 00:10:33;;;;;;;7.40;4.40;;;;;;;12.54;100.00;101436.98;105904;1257;62200;-52
2023/09/04 00:13:01;;;;;;;7.20;5.20;;;;;;;12.55;100.00;101441.31;105854;1256;71390;-51
2023/09/04 00:15:28;;;;;;;5.30;4.60;;;;;;;12.56;100.00;101437.84;105804;1254;60437;-50
2023/09/04 00:17:57;;;;;;;6.40;4.40;;;;;;;12.56;100.00;101437.14;105858;1254;60364;-52
2023/09/04 00:20:24;;;;;;;6.60;4.60;;;;;;;12.59;100.00;101437.81;105864;1253;73822;-52
2023/09/04 00:22:53;;;;;;;5.30;4.40;;;;;;;12.61;100.00;101437.61;105901;1257;63413;-53
2023/09/04 00:25:20;;;;;;;10.00;4.50;;;;;;;12.62;100.00;101437.75;105902;1257;72632;-52
2023/09/04 00:27:49;;;;;;;8.90;4.60;;;;;;;12.60;100.00;101435.02;105889;1253;60501;-52
2023/09/04 00:30:17;;;;;;;4.70;4.30;;;;;;;12.57;100.00;101433.66;105811;1254;60476;-51
2023/09/04 00:32:45;;;;;;;10.20;4.20;;;;;;;12.55;100.00;101433.70;105915;1257;73855;-51
2023/09/04 00:35:13;;;;;;;4.30;3.90;;;;;;;12.54;100.00;101437.52;105926;1254;63346;-50
2023/09/04 00:37:41;;;;;;;6.40;4.30;;;;;;;12.53;100.00;101430.77;105897;1253;70585;-50
2023/09/04 00:40:10;;;;;;;4.80;4.20;;;;;;;12.53;100.00;101431.48;105905;1254;60482;-52
2023/09/04 00:42:37;;;;;;;6.90;4.60;;;;;;;12.50;100.00;101428.38;105809;1253;60518;-51
2023/09/04 00:45:11;;;;;;;10.30;3.90;;;;;;;12.50;100.00;101432.02;105878;1257;72625;-51
2023/09/04 00:47:40;;;;;;;4.90;4.00;;;;;;;12.50;100.00;101431.66;105760;1257;63220;-50
2023/09/04 00:50:10;;;;;;;6.80;4.10;;;;;;;12.50;100.00;101435.30;105914;1254;71446;-49
2023/09/04 00:52:38;;;;;;;13.60;4.80;;;;;;;12.49;100.00;101434.09;105910;1254;60363;-50
2023/09/04 00:55:06;;;;;;;7.10;4.70;;;;;;;12.48;100.00;101432.90;105647;1260;60338;-50
2023/09/04 00:57:35;;;;;;;5.10;4.00;;;;;;;12.46;100.00;101432.40;105669;1259;73795;-50
2023/09/04 01:00:13;;;;;;;6.20;4.20;;;;;;;12.46;100.00;101430.50;105828;1254;63223;-51
2023/09/04 01:02:41;;;;;;;11.10;4.10;;;;;;;12.47;100.00;101428.92;105717;1254;72630;-49
2023/09/04 01:05:09;;;;;;;5.30;4.50;;;;;;;12.46;100.00;101432.74;105718;1254;60514;-50
2023/09/04 01:07:37;;;;;;;4.30;3.90;;;;;;;12.45;100.00;101434.66;105883;1254;60405;-49
2023/09/04 01:10:10;;;;;;;4.90;3.80;;;;;;;12.45;100.00;101437.61;105685;1252;73799;-49
2023/09/04 01:13:15;;;;;;;9.70;4.70;;;;;;;12.44;100.00;101439.00;105915;1252;64447;-51
2023/09/04 01:15:44;;;;;;;5.40;4.30;;;;;;;12.44;100.00;101441.59;105743;1254;71034;-50
2023/09/04 01:18:12;;;;;;;8.20;4.50;;;;;;;12.42;100.00;101438.52;105817;1254;60552;-49
2023/09/04 01:20:40;;;;;;;7.50;4.50;;;;;;;12.40;100.00;101433.17;105722;1254;60875;-50
2023/09/04 01:23:08;;;;;;;7.90;4.00;;;;;;;12.36;100.00;101433.55;105918;1253;72583;-51
2023/09/04 01:25:44;;;;;;;5.10;3.60;;;;;;;12.33;100.00;101430.98;105885;1253;64318;-49
2023/09/04 01:28:21;;;;;;;5.10;3.70;;;;;;;12.29;100.00;101434.48;105734;1257;72650;-51
2023/09/04 01:31:03;;;;;;;9.10;3.70;;;;;;;12.24;100.00;101431.41;105799;1253;60668;-50
2023/09/04 01:33:33;;;;;;;5.70;4.00;;;;;;;12.19;100.00;101430.58;105934;1253;60492;-49
2023/09/04 01:36:04;;;;;;;7.20;4.00;;;;;;;12.15;100.00;101429.08;105912;1256;73833;-52
2023/09/04 01:38:33;;;;;;;4.50;4.10;;;;;;;12.09;100.00;101427.73;105812;1254;63242;-58
2023/09/04 01:41:10;;;;;;;7.60;4.70;;;;;;;12.04;100.00;101427.27;105911;1254;70639;-50
2023/09/04 01:43:38;;;;;;;6.90;4.20;;;;;;;11.98;100.00;101422.97;105743;1257;60537;-55
2023/09/04 01:46:06;;;;;;;6.20;4.30;;;;;;;11.93;100.00;101418.52;105746;1256;60443;-52
2023/09/04 01:48:35;;;;;;;6.60;4.10;;;;;;;11.89;100.00;101415.79;105862;1256;73790;-51
2023/09/04 01:51:03;;;;;;;8.90;4.10;;;;;;;11.86;100.00;101411.31;105746;1253;63577;-49
2023/09/04 01:53:30;;;;;;;5.40;4.30;;;;;;;11.84;100.00;101406.14;105861;1253;71757;-51
2023/09/04 01:55:59;;;;;;;5.30;4.00;;;;;;;11.83;100.00;101400.45;105932;1253;60653;-50
2023/09/04 01:58:28;;;;;;;10.40;4.40;;;;;;;11.82;100.00;101394.58;105709;1252;60328;-51
2023/09/04 02:00:55;;;;;;;4.30;3.90;;;;;;;11.78;100.00;101384.58;105696;1252;73831;-50
2023/09/04 02:03:23;;;;;;;7.40;4.00;;;;;;;11.75;100.00;101380.11;105878;1256;63119;-52
2023/09/04 02:05:52;;;;;;;12.40;4.20;;;;;;;11.73;100.00;101374.58;105694;1258;71425;-51
2023/09/04 02:08:20;;;;;;;7.30;4.60;;;;;;;11.71;100.00;101365.78;105794;1253;60559;-49
2023/09/04 02:10:48;;;;;;;13.10;4.70;;;;;;;11.69;100.00;101358.20;105695;1257;60419;-50
2023/09/04 02:13:16;;;;;;;3.80;3.50;;;;;;;11.66;100.00;101349.58;105829;1257;73817;-51
2023/09/04 02:15:44;;;;;;;8.40;4.10;;;;;;;11.62;100.00;101343.74;105731;1253;63111;-50
2023/09/04 02:18:13;;;;;;;7.10;4.40;;;;;;;11.60;100.00;101343.23;105888;1257;72606;-50
2023/09/04 02:20:41;;;;;;;7.70;4.50;;;;;;;11.58;100.00;101334.95;105925;1254;60428;-51
2023/09/04 02:23:10;;;;;;;5.30;4.10;;;;;;;11.57;100.00;101323.38;105877;1257;60437;-49
2023/09/04 02:25:38;;;;;;;11.30;4.30;;;;;;;11.56;100.00;101316.98;105792;1254;73826;-51
2023/09/04 02:28:06;;;;;;;5.60;3.90;;;;;;;11.55;100.00;101309.55;105888;1253;63680;-50
2023/09/04 02:30:37;;;;;;;7.10;3.90;;;;;;;11.54;100.00;101304.04;105805;1254;71397;-49
2023/09/04 02:33:05;;;;;;;6.50;4.40;;;;;;;11.52;100.00;101301.81;105931;1252;60359;-49
2023/09/04 02:35:34;;;;;;;9.40;4.40;;;;;;;11.52;100.00;101296.46;105841;1254;60342;-49
2023/09/04 02:38:03;;;;;;;5.80;3.90;;;;;;;11.52;100.00;101287.13;105902;1257;72190;-51
2023/09/04 02:40:30;;;;;;;6.30;3.90;;;;;;;11.52;100.00;101288.85;105908;1254;64405;-49
2023/09/04 02:42:58;;;;;;;11.00;4.30;;;;;;;11.53;100.00;101283.15;105908;1254;72909;-50
2023/09/04 02:45:27;;;;;;;6.30;4.30;;;;;;;11.53;100.00;101282.64;105802;1253;60431;-51
2023/09/04 02:47:55;;;;;;;8.80;4.60;;;;;;;11.56;100.00;101274.83;105734;1258;60347;-50
2023/09/04 02:50:23;;;;;;;4.30;3.90;;;;;;;11.55;100.00;101268.94;105876;1254;73773;-51
2023/09/04 02:52:51;;;;;;;7.80;4.10;;;;;;;11.55;100.00;101262.02;105881;1257;63293;-50
2023/09/04 02:55:19;;;;;;;6.80;4.10;;;;;;;11.55;100.00;101255.29;105695;1257;71077;-49
2023/09/04 02:57:46;;;;;;;5.70;3.90;;;;;;;11.55;100.00;101249.41;105844;1254;60584;-49
2023/09/04 03:00:14;;;;;;;5.00;4.50;;;;;;;11.53;100.00;101248.41;105778;1257;60350;-50
2023/09/04 03:02:42;;;;;;;9.40;4.40;;;;;;;11.50;100.00;101242.89;105890;1253;72528;-50
2023/09/04 03:05:10;;;;;;;5.20;4.40;;;;;;;11.48;100.00;101243.60;105918;1254;62843;-50
2023/09/04 03:07:38;;;;;;;9.80;4.80;;;;;;;11.45;100.00;101246.21;105860;1256;71451;-51
2023/09/04 03:10:07;;;;;;;6.50;4.70;;;;;;;11.44;100.00;101242.42;105921;1254;60683;-52
2023/09/04 03:12:34;;;;;;;6.20;4.90;;;;;;;11.43;100.00;101242.08;105715;1259;60428;-50
2023/09/04 03:15:04;;;;;;;11.90;5.30;;;;;;;11.44;100.00;101239.14;105884;1256;72878;-51
2023/09/04 03:17:32;;;;;;;13.80;4.90;;;;;;;11.44;100.00;101235.33;105760;1256;63099;-51
2023/09/04 03:20:04;;;;;;;5.90;4.50;;;;;;;11.46;100.00;101233.23;105715;1259;70625;-52
2023/09/04 03:22:32;;;;;;;4.20;3.80;;;;;;;11.46;100.00;101228.58;105718;1258;60517;-53
2023/09/04 03:25:00;;;;;;;10.10;5.10;;;;;;;11.47;100.00;101225.79;105732;1254;60601;-52
2023/09/04 03:27:29;;;;;;;7.30;4.90;;;;;;;11.49;100.00;101226.99;105895;1256;72870;-50
2023/09/04 03:29:57;;;;;;;10.00;4.60;;;;;;;11.51;100.00;101226.46;105767;1254;63466;-50
2023/09/04 03:32:25;;;;;;;10.70;4.30;;;;;;;11.54;100.00;101227.13;105875;1257;71673;-51
2023/09/04 03:34:52;;;;;;;5.60;4.00;;;;;;;11.56;100.00;101222.95;105738;1254;61611;-51
2023/09/04 03:37:20;;;;;;;5.40;4.40;;;;;;;11.59;100.00;101222.93;105769;1257;60324;-52
2023/09/04 03:39:48;;;;;;;13.00;5.00;;;;;;;11.61;100.00;101222.39;105685;1254;73806;-51
2023/09/04 03:42:16;;;;;;;11.40;4.70;;;;;;;11.63;100.00;101220.98;105879;1255;63236;-49
2023/09/04 03:44:44;;;;;;;10.30;4.40;;;;;;;11.67;100.00;101224.05;105743;1254;71866;-51
2023/09/04 03:47:12;;;;;;;8.10;4.00;;;;;;;11.71;100.00;101221.92;105779;1253;60715;-51
2023/09/04 03:49:39;;;;;;;8.10;4.30;;;;;;;11.77;100.00;101219.80;105898;1253;60488;-52
2023/09/04 03:52:07;;;;;;;5.30;4.30;;;;;;;11.84;100.00;101223.35;105878;1257;73807;-51
2023/09/04 03:54:35;;;;;;;9.00;4.10;;;;;;;11.90;100.00;101222.25;105905;1254;63149;-55
2023/09/04 03:57:03;;;;;;;8.40;4.00;;;;;;;12.00;100.00;101220.41;105873;1257;71428;-52
2023/09/04 03:59:30;;;;;;;12.00;5.20;;;;;;;12.09;100.00;101222.91;105919;1254;60536;-53
2023/09/04 04:01:59;;;;;;;8.30;5.00;;;;;;;12.16;100.00;101225.08;105687;1257;60356;-52
2023/09/04 04:04:26;;;;;;;9.40;4.50;;;;;;;12.26;100.00;101229.63;105945;1254;72633;-50
2023/09/04 04:06:55;;;;;;;8.90;4.80;;;;;;;12.36;100.00;101236.23;105924;1254;64448;-52
2023/09/04 04:09:23;;;;;;;12.30;4.00;;;;;;;12.48;100.00;101238.50;105894;1252;71351;-52
2023/09/04 04:11:54;;;;;;;8.20;4.90;;;;;;;12.62;100.00;101240.37;105853;1257;60514;-52
2023/09/04 04:14:22;;;;;;;8.10;4.40;;;;;;;12.77;100.00;101245.53;105919;1254;60337;-50
2023/09/04 04:16:50;;;;;;;14.60;5.10;;;;;;;12.92;100.00;101252.23;105881;1257;72904;-51
2023/09/04 04:19:19;;;;;;;9.00;4.80;;;;;;;13.06;100.00;101263.96;105732;1254;63278;-52
2023/09/04 04:21:46;;;;;;;14.70;5.10;;;;;;;13.22;100.00;101281.73;105766;1254;72731;-53
2023/09/04 04:24:14;;;;;;;8.90;4.70;;;;;;;13.37;100.00;101306.46;105865;1256;60644;-52
2023/09/04 04:26:43;;;;;;;9.50;4.50;;;;;;;13.52;100.00;101329.48;105854;1257;60389;-52
2023/09/04 04:29:10;;;;;;;8.50;4.60;;;;;;;13.68;100.00;101359.71;105871;1257;72318;-52
2023/09/04 04:31:38;;;;;;;6.90;4.50;;;;;;;13.85;100.00;101389.80;105770;1254;63429;-51
2023/09/04 04:34:06;;;;;;;6.90;4.60;;;;;;;14.04;100.00;101417.23;105750;1258;72727;-49
2023/09/04 04:36:34;;;;;;;8.60;4.40;;;;;;;14.24;100.00;101442.21;105850;1254;60510;-50
2023/09/04 04:39:03;;;;;;;8.90;4.70;;;;;;;14.45;100.00;101459.02;105917;1254;60693;-51
2023/09/04 04:41:32;;;;;;;10.90;4.50;;;;;;;14.67;100.00;101454.10;105903;1252;73773;-51
2023/09/04 04:44:01;;;;;;;8.50;4.50;;;;;;;14.89;100.00;101440.13;105777;1254;62229;-50
2023/09/04 04:46:29;;;;;;;10.30;5.10;;;;;;;15.12;100.00;101414.61;105850;1254;72616;-50
2023/09/04 04:48:58;;;;;;;9.50;4.10;;;;;;;15.34;100.00;101359.52;105690;1254;314863;-50
2023/09/04 04:53:42;;;;;;;7.30;4.90;;;;;;;15.58;100.00;101189.50;102450;1295;602456;-50
2023/09/04 04:56:09;;;;;;;13.60;4.50;;;;;;;15.66;100.00;101066.30;105019;1267;60799;-50
2023/09/04 04:58:36;;;;;;;8.20;4.40;;;;;;;15.73;100.00;100990.06;104996;1266;60893;-51
2023/09/04 05:01:06;;;;;;;13.80;5.10;;;;;;;15.81;100.00;100947.89;104880;1267;72230;-49
2023/09/04 05:03:34;;;;;;;8.90;4.20;;;;;;;15.89;100.00;100911.61;104897;1266;63435;-50
2023/09/04 05:06:02;;;;;;;11.50;4.40;;;;;;;15.95;100.00;100862.66;104526;1272;321997;-49
2023/09/04 05:08:29;;;;;;;12.50;5.30;;;;;;;15.97;100.00;100796.48;105048;1269;60314;-49
2023/09/04 05:10:59;;;;;;;13.40;4.50;;;;;;;15.99;100.00;100769.79;105169;1263;60350;-51
2023/09/04 05:13:26;;;;;;;8.40;4.40;;;;;;;16.01;100.00;100759.24;105178;1269;72126;-51
2023/09/04 05:15:53;;;;;;;11.40;4.10;;;;;;;16.00;100.00;100743.29;105487;1262;64496;-52
2023/09/04 05:18:20;;;;;;;13.20;4.60;;;;;;;15.97;100.00;100729.11;105478;1257;72612;-49
2023/09/04 05:20:48;;;;;;;10.40;5.10;;;;;;;15.97;100.00;100745.13;105614;1262;60127;-50
2023/09/04 05:23:15;;;;;;;15.90;6.20;;;;;;;16.00;100.00;100762.61;105613;1257;59854;-49
2023/09/04 05:25:53;;;;;;;20.90;5.30;;;;;;;16.04;100.00;100772.73;105663;1260;72896;-51
2023/09/04 05:28:20;;;;;;;13.00;4.80;;;;;;;16.08;100.00;100773.47;105566;1259;64820;-51
2023/09/04 05:30:47;;;;;;;16.80;5.20;;;;;;;16.14;100.00;100769.09;105609;1257;72422;-50
2023/09/04 05:33:14;;;;;;;14.50;4.70;;;;;;;16.18;100.00;100755.69;105620;1261;60320;-50
2023/09/04 05:35:41;;;;;;;9.80;4.60;;;;;;;16.25;100.00;100748.83;105610;1257;60244;-49
2023/09/04 05:38:09;;;;;;;12.50;5.40;;;;;;;16.33;100.00;100752.16;105641;1260;73071;-50
2023/09/04 05:40:36;;;;;;;6.80;4.60;;;;;;;16.43;100.00;100740.86;105586;1260;64588;-51
2023/09/04 05:43:03;;;;;;;13.00;6.00;;;;;;;16.54;100.00;100723.86;105606;1257;72489;-49
2023/09/04 05:45:30;;;;;;;11.70;5.70;;;;;;;16.66;100.00;100708.27;105608;1261;60412;-51
2023/09/04 05:47:57;;;;;;;7.10;4.80;;;;;;;16.78;100.00;100671.33;105622;1257;60151;-49
2023/09/04 05:50:24;;;;;;;6.00;4.20;;;;;;;16.92;100.00;100629.98;105582;1260;73115;-50
2023/09/04 05:52:53;;;;;;;10.80;4.30;;;;;;;17.05;100.00;100611.16;105636;1257;64730;-50
2023/09/04 05:55:20;;;;;;;10.40;4.30;;;;;;;17.20;100.00;100593.27;105635;1257;73084;-51
2023/09/04 05:57:47;;;;;;;9.00;3.60;;;;;;;17.35;100.00;100561.58;105590;1260;60194;-49
2023/09/04 06:00:14;;;;;;;12.60;3.70;;;;;;;17.48;100.00;100546.48;105652;1257;60271;-51
2023/09/04 06:02:42;;;;;;;9.00;4.20;;;;;;;17.64;100.00;100529.39;105641;1257;72992;-50
2023/09/04 06:05:09;;;;;;;13.50;3.80;;;;;;;17.80;100.00;100516.08;105655;1260;64659;-50
2023/09/04 06:07:35;;;;;;;6.20;3.50;;;;;;;17.98;100.00;100521.49;105575;1257;72495;-51
2023/09/04 06:10:03;;;;;;;8.40;3.60;;;;;;;18.17;100.00;100543.31;105617;1260;60212;-50
2023/09/04 06:12:31;;;;;;;5.10;3.60;;;;;;;18.31;100.00;100561.12;105613;1257;60525;-54
2023/09/04 06:14:57;;;;;;;11.70;3.50;;;;;;;18.47;100.00;100594.62;105569;1259;73472;-51
2023/09/04 06:17:24;;;;;;;17.50;6.10;;;;;;;18.60;100.00;100607.93;105498;1260;64685;-50
2023/09/04 06:19:51;;;;;;;12.20;5.20;;;;;;;18.75;100.00;100626.45;105607;1257;72757;-53
2023/09/04 06:22:18;;;;;;;12.80;4.40;;;;;;;18.88;100.00;100645.02;105618;1260;60341;-50
2023/09/04 06:24:45;;;;;;;7.70;4.40;;;;;;;19.00;100.00;100669.60;105654;1257;60273;-48
2023/09/04 06:27:12;;;;;;;10.70;5.40;;;;;;;19.15;100.00;100692.84;105556;1257;73127;-52
2023/09/04 06:29:38;;;;;;;16.20;4.90;;;;;;;19.27;100.00;100708.31;105617;1261;64727;-51
2023/09/04 06:32:05;;;;;;;11.20;4.60;;;;;;;19.42;100.00;100760.60;105572;1257;71578;-50
2023/09/04 06:34:32;;;;;;;12.30;4.20;;;;;;;19.55;100.00;100777.08;105595;1261;60372;-49
2023/09/04 06:36:59;;;;;;;16.70;3.70;;;;;;;19.67;100.00;100792.94;105645;1257;59746;-50
2023/09/04 06:39:26;;;;;;;9.70;4.10;;;;;;;19.78;100.00;100799.53;105611;1260;72964;-50
2023/09/04 06:41:53;;;;;;;8.30;4.20;;;;;;;19.91;100.00;100818.34;105595;1260;64672;-50
2023/09/04 06:44:20;;;;;;;14.70;4.70;;;;;;;20.00;100.00;100833.46;105592;1257;72935;-52
2023/09/04 06:46:47;;;;;;;14.20;5.90;;;;;;;20.13;100.00;100844.16;105643;1261;60276;-51
2023/09/04 06:49:14;;;;;;;19.00;7.90;;;;;;;20.28;100.00;100856.15;105618;1257;60401;-50
2023/09/04 06:51:41;;;;;;;33.30;10.80;;;;;;;20.46;100.00;100846.48;105684;1256;72855;-49
2023/09/04 06:54:07;;;;;;;31.60;14.70;;;;;;;20.60;100.00;100845.54;105595;1260;64602;-52
2023/09/04 06:56:34;;;;;;;24.10;9.20;;;;;;;20.73;97.58;100844.48;105565;1257;72684;-49
2023/09/04 06:59:02;;;;;;;9.60;4.00;;;;;;;20.89;89.79;100847.15;105608;1260;61439;-50
2023/09/04 07:01:29;;;;;;;9.80;3.70;;;;;;;20.97;87.73;100868.11;105596;1257;60421;-51
2023/09/04 07:03:57;;;;;;;9.50;4.50;;;;;;;21.04;86.18;100869.66;105664;1260;73499;-51
2023/09/04 07:06:23;;;;;;;18.60;5.10;;;;;;;21.11;85.56;100883.15;105598;1260;64716;-52
2023/09/04 07:08:52;;;;;;;25.90;6.40;;;;;;;21.22;87.05;100890.77;105649;1260;72653;-52
2023/09/04 07:11:19;;;;;;;7.10;3.30;;;;;;;21.36;80.75;100859.77;105606;1261;60629;-49
2023/09/04 07:13:46;;;;;;;9.10;3.50;;;;;;;21.48;74.69;100833.14;105657;1258;60251;-51
2023/09/04 07:16:15;;;;;;;3.60;3.10;;;;;;;21.55;75.23;100866.94;105596;1257;73070;-50
2023/09/04 07:19:01;;;;;;;11.60;3.60;;;;;;;21.65;73.98;100861.64;105692;1260;64764;-50
2023/09/04 07:21:28;;;;;;;5.90;3.50;;;;;;;21.76;73.13;100868.58;105667;1261;71653;-52
2023/09/04 07:23:55;;;;;;;13.00;4.50;;;;;;;21.91;73.11;100876.48;105660;1260;59733;-51
2023/09/04 07:26:22;;;;;;;12.20;5.70;;;;;;;22.09;70.22;100835.54;105560;1257;59656;-52
2023/09/04 07:28:49;;;;;;;10.80;5.10;;;;;;;22.23;68.35;100826.05;105586;1260;71853;-51
2023/09/04 07:31:20;;;;;;;7.40;4.30;;;;;;;22.34;67.73;100827.52;105587;1261;64666;-50
2023/09/04 07:33:49;;;;;;;10.80;3.50;;;;;;;22.49;66.39;100811.80;105614;1257;72577;-52
2023/09/04 07:36:17;;;;;;;11.90;5.20;;;;;;;22.63;64.13;100769.44;105599;1260;59606;-51
2023/09/04 07:38:45;;;;;;;15.40;5.70;;;;;;;22.78;63.47;100771.86;105610;1257;60308;-52
2023/09/04 07:41:12;;;;;;;13.40;3.40;;;;;;;22.92;62.75;100773.39;105600;1260;72991;-51
2023/09/04 07:43:39;;;;;;;12.90;3.80;;;;;;;23.06;60.56;100699.27;105606;1262;64554;-51
2023/09/04 07:46:06;;;;;;;5.40;3.00;;;;;;;23.21;59.82;100687.16;105612;1257;72709;-52
2023/09/04 07:48:36;;;;;;;12.40;2.20;;;;;;;23.35;57.62;100564.26;105587;1262;59558;-53
2023/09/04 07:51:05;;;;;;;3.10;2.30;;;;;;;23.46;56.15;100495.86;105639;1257;60177;-51
2023/09/04 07:53:46;;;;;;;6.60;2.70;;;;;;;23.52;55.02;100439.25;105586;1257;73045;-51
2023/09/04 07:56:12;;;;;;;4.60;3.10;;;;;;;23.61;54.59;100430.52;105581;1262;64838;-53
2023/09/04 07:58:40;;;;;;;11.00;3.30;;;;;;;23.69;54.25;100427.09;105639;1262;72651;-51
2023/09/04 08:01:11;;;;;;;5.60;2.50;;;;;;;23.83;54.82;100503.59;105622;1262;60313;-52
2023/09/04 08:03:38;;;;;;;8.70;2.30;;;;;;;24.01;54.83;100514.98;105606;1261;59746;-53
2023/09/04 08:06:07;;;;;;;4.30;2.20;;;;;;;24.21;53.14;100377.65;105578;1257;72015;-52
2023/09/04 08:08:34;;;;;;;9.90;2.20;;;;;;;24.33;51.85;100267.73;105613;1258;63295;-53
2023/09/04 08:11:01;;;;;;;11.00;2.40;;;;;;;24.42;51.60;100236.05;105613;1263;72684;-50
2023/09/04 08:13:28;;;;;;;11.00;3.10;;;;;;;24.48;51.17;100213.50;105587;1260;59794;-49
2023/09/04 08:15:55;;;;;;;13.30;6.00;;;;;;;24.54;50.69;100185.01;105600;1257;60093;-52
2023/09/04 08:18:23;;;;;;;8.90;5.70;;;;;;;24.52;50.73;100210.70;105630;1263;73230;-52
2023/09/04 08:20:50;;;;;;;6.30;2.70;;;;;;;24.54;51.18;100293.44;105615;1257;63315;-52
2023/09/04 08:23:18;;;;;;;2.60;2.40;;;;;;;24.59;50.03;100176.62;105591;1257;72548;-51
2023/09/04 08:25:45;;;;;;;11.80;6.20;;;;;;;24.61;50.37;100229.04;105572;1261;60210;-49
2023/09/04 08:28:12;;;;;;;5.30;3.20;;;;;;;24.69;50.22;100215.90;105630;1257;60329;-52
2023/09/04 08:30:39;;;;;;;5.20;3.30;;;;;;;24.76;49.33;100126.95;105539;1257;73036;-52
2023/09/04 08:33:06;;;;;;;5.00;3.10;;;;;;;24.71;49.34;100145.16;105505;1261;64502;-53
2023/09/04 08:35:33;;;;;;;6.10;2.70;;;;;;;24.70;48.53;100079.79;105575;1257;72621;-51
2023/09/04 08:38:04;;;;;;;5.10;2.70;;;;;;;24.72;48.30;100040.50;105604;1263;59745;-50
2023/09/04 08:40:31;;;;;;;8.50;3.10;;;;;;;24.83;48.51;100063.22;105694;1257;61536;-52
2023/09/04 08:42:58;;;;;;;4.20;2.00;;;;;;;25.01;48.16;100052.33;105483;1257;73040;-51
2023/09/04 08:45:25;;;;;;;12.10;2.60;;;;;;;25.16;47.12;99912.50;105491;1262;64520;-53
2023/09/04 08:47:54;;;;;;;5.10;3.00;;;;;;;25.20;48.46;100074.58;105596;1257;72531;-50
2023/09/04 08:50:23;;;;;;;6.90;2.60;;;;;;;25.37;47.85;100046.08;105626;1261;60894;-51
2023/09/04 08:52:50;;;;;;;7.10;3.10;;;;;;;25.50;47.25;99958.05;105667;1257;60380;-52
2023/09/04 08:55:19;;;;;;;7.40;4.00;;;;;;;25.60;46.94;99932.14;105588;1261;72755;-49
2023/09/04 08:57:46;;;;;;;5.20;2.80;;;;;;;25.63;46.87;99904.65;105636;1262;64667;-50
2023/09/04 09:00:14;;;;;;;7.60;3.50;;;;;;;25.67;46.36;99862.42;105555;1257;72815;-51
2023/09/04 09:02:42;;;;;;;8.00;4.30;;;;;;;25.68;47.11;99949.91;105609;1257;60561;-52
2023/09/04 09:05:13;;;;;;;4.90;4.30;;;;;;;25.82;46.89;99983.48;105582;1262;60607;-54
2023/09/04 09:07:40;;;;;;;8.50;2.60;;;;;;;25.97;45.47;99797.33;105485;1257;73843;-51
2023/09/04 09:10:09;;;;;;;8.00;5.70;;;;;;;25.97;45.46;99776.80;105664;1262;64510;-52
2023/09/04 09:12:36;;;;;;;32.30;14.10;;;;;;;26.06;45.43;99799.95;105627;1262;73073;-51
2023/09/04 09:15:03;;;;;;;7.40;4.10;;;;;;;26.14;45.20;99751.50;105574;1262;60424;-52
2023/09/04 09:17:30;;;;;;;4.10;1.90;;;;;;;26.15;44.45;99662.33;105638;1257;60442;-53
2023/09/04 09:19:57;;;;;;;6.60;3.10;;;;;;;26.17;44.49;99666.30;105600;1257;73839;-53
2023/09/04 09:22:24;;;;;;;16.30;5.40;;;;;;;26.19;45.46;99779.92;105607;1260;64567;-51
2023/09/04 09:24:56;;;;;;;32.00;14.90;;;;;;;26.30;45.10;99784.73;105569;1257;73015;-52
2023/09/04 09:27:24;;;;;;;67.40;31.30;;;;;;;26.35;44.09;99645.95;105610;1262;60479;-52
2023/09/04 09:29:55;;;;;;;48.10;24.50;;;;;;;26.24;44.92;99743.73;105625;1260;60306;-53
2023/09/04 09:32:22;;;;;;;80.30;15.50;;;;;;;26.07;44.95;99791.91;105610;1257;75117;-53
2023/09/04 09:34:50;;;;;;;44.10;20.30;;;;;;;25.98;45.08;99830.45;105613;1262;64742;-51
2023/09/04 09:37:23;;;;;;;43.80;21.10;;;;;;;25.91;44.30;99739.02;105656;1261;71737;-51
2023/09/04 09:39:50;;;;;;;22.00;13.80;;;;;;;25.67;44.33;99743.89;105614;1260;60352;-51
2023/09/04 09:42:17;;;;;;;21.10;10.40;;;;;;;25.42;45.06;99856.52;105639;1257;60405;-53
2023/09/04 09:44:44;;;;;;;12.00;3.90;;;;;;;25.27;45.82;99964.33;105469;1257;73679;-51
2023/09/04 09:47:11;;;;;;;10.20;2.90;;;;;;;25.17;45.72;100005.05;105645;1261;65070;-54
2023/09/04 09:49:39;;;;;;;12.20;4.40;;;;;;;25.28;45.05;99924.49;105568;1257;72628;-53
2023/09/04 09:52:07;;;;;;;11.00;6.10;;;;;;;25.48;46.03;100019.73;105509;1257;60672;-53
2023/09/04 09:54:45;;;;;;;22.50;7.70;;;;;;;25.82;44.81;99907.91;105674;1261;60441;-52
2023/09/04 09:57:16;;;;;;;6.20;2.90;;;;;;;26.04;43.37;99681.39;105628;1258;72549;-52
2023/09/04 09:59:44;;;;;;;8.60;2.70;;;;;;;26.08;43.07;99646.93;105612;1263;64522;-51
2023/09/04 10:02:26;;;;;;;14.90;8.40;;;;;;;26.18;42.78;99591.90;105601;1257;74072;-51
2023/09/04 10:04:54;;;;;;;5.10;4.20;;;;;;;26.34;43.42;99646.93;105620;1263;60543;-52
2023/09/04 10:07:24;;;;;;;4.30;2.20;;;;;;;26.55;42.66;99581.02;105560;1257;60412;-52
2023/09/04 10:10:05;;;;;;;8.80;3.00;;;;;;;26.64;42.40;99486.67;105612;1257;74246;-52
2023/09/04 10:12:43;;;;;;;14.40;3.40;;;;;;;26.74;42.33;99518.81;105529;1257;63378;-52
2023/09/04 10:15:11;;;;;;;5.10;3.40;;;;;;;26.82;42.46;99535.19;105652;1257;72979;-53
2023/09/04 10:17:45;;;;;;;6.10;2.50;;;;;;;26.92;41.66;99443.56;105606;1259;60415;-52
2023/09/04 10:20:12;;;;;;;11.60;2.70;;;;;;;26.93;40.94;99358.52;105629;1257;60459;-53
2023/09/04 10:22:45;;;;;;;7.40;3.70;;;;;;;26.85;42.51;99490.06;105589;1262;73838;-52
2023/09/04 10:25:21;;;;;;;8.90;2.20;;;;;;;26.94;41.28;99431.35;105601;1258;63545;-53
2023/09/04 10:27:50;;;;;;;4.20;1.70;;;;;;;26.90;41.08;99362.73;105619;1257;73217;-50
2023/09/04 10:30:18;;;;;;;2.70;1.70;;;;;;;26.88;41.05;99386.48;105576;1257;60460;-52
2023/09/04 10:32:45;;;;;;;5.90;1.70;;;;;;;26.93;41.50;99412.54;105640;1257;60792;-51
2023/09/04 10:35:12;;;;;;;7.00;2.90;;;;;;;27.02;41.87;99479.58;105650;1262;73607;-51
2023/09/04 10:37:39;;;;;;;7.80;2.20;;;;;;;27.07;41.45;99447.93;105607;1261;65152;-53
2023/09/04 10:40:09;;;;;;;3.30;1.60;;;;;;;27.08;41.32;99432.90;105593;1257;72900;-53
2023/09/04 10:42:38;;;;;;;5.10;1.30;;;;;;;27.14;40.88;99397.93;105480;1257;60479;-52
2023/09/04 10:45:12;;;;;;;5.80;1.70;;;;;;;27.18;40.54;99323.17;105647;1257;61653;-54
2023/09/04 10:47:46;;;;;;;7.40;1.70;;;;;;;27.20;40.86;99355.14;105644;1257;73698;-52
2023/09/04 10:50:37;;;;;;;2.90;1.50;;;;;;;27.25;41.24;99405.67;105614;1259;63963;-51
2023/09/04 10:53:07;;;;;;;2.60;1.90;;;;;;;27.38;40.45;99345.02;105645;1257;73859;-52
2023/09/04 10:55:36;;;;;;;10.00;1.40;;;;;;;27.35;40.20;99303.29;105632;1259;60590;-51
2023/09/04 10:58:07;;;;;;;5.10;2.20;;;;;;;27.31;41.24;99399.61;105700;1256;60791;-53
2023/09/04 11:00:35;;;;;;;6.50;3.20;;;;;;;27.32;41.25;99442.84;105633;1260;75364;-52
2023/09/04 11:03:16;;;;;;;5.60;1.50;;;;;;;27.31;40.94;99431.81;105625;1259;64756;-52
2023/09/04 11:06:05;;;;;;;6.40;1.60;;;;;;;27.29;40.74;99391.08;105690;1257;72782;-51
2023/09/04 11:08:36;;;;;;;25.80;3.90;;;;;;;27.36;40.95;99412.66;105622;1259;60535;-53
2023/09/04 11:11:07;;;;;;;6.00;2.00;;;;;;;27.31;40.04;99281.95;105615;1256;60893;-52
2023/09/04 11:13:39;;;;;;;3.30;1.70;;;;;;;27.28;40.36;99339.67;105640;1257;72985;-50
2023/09/04 11:16:07;;;;;;;8.40;1.70;;;;;;;27.35;41.53;99486.74;105622;1259;64922;-51
2023/09/04 11:18:35;;;;;;;10.40;2.00;;;;;;;27.57;40.19;99382.09;105627;1259;71995;-51
2023/09/04 11:21:03;;;;;;;12.80;1.90;;;;;;;27.73;40.50;99348.16;105621;1259;60354;-51